createdAt,value
2016-11-11T00:00:02.186Z,0
2016-11-11T00:01:11.463Z,0
2016-11-11T00:02:20.725Z,0
2016-11-11T00:03:29.659Z,0
2016-11-11T00:04:38.600Z,0
2016-11-11T00:05:47.772Z,0
2016-11-11T00:06:57.035Z,0
2016-11-11T00:08:05.967Z,0
2016-11-11T00:09:15.222Z,0
2016-11-11T00:10:23.835Z,0
2016-11-11T00:11:32.700Z,0
2016-11-11T00:12:41.632Z,0
2016-11-11T00:13:50.565Z,0
2016-11-11T00:14:59.826Z,0
2016-11-11T00:16:08.766Z,0
2016-11-11T00:17:17.733Z,0
2016-11-11T00:18:26.980Z,0
2016-11-11T00:19:35.586Z,0
2016-11-11T00:20:44.521Z,0
2016-11-11T00:21:53.457Z,0
2016-11-11T00:23:02.103Z,0
2016-11-11T00:24:11.036Z,0
2016-11-11T00:25:19.963Z,0
2016-11-11T00:26:29.211Z,0
2016-11-11T00:27:38.145Z,0
2016-11-11T00:28:47.122Z,0
2016-11-11T00:29:56.038Z,0
2016-11-11T00:31:04.657Z,0
2016-11-11T00:32:13.577Z,0
2016-11-11T00:33:22.512Z,0
2016-11-11T00:34:31.861Z,0
2016-11-11T00:35:40.791Z,0
2016-11-11T00:36:49.388Z,0
2016-11-11T00:37:58.310Z,0
2016-11-11T00:39:06.906Z,0
2016-11-11T00:40:15.929Z,0
2016-11-11T00:41:24.557Z,0
2016-11-11T00:42:33.484Z,0
2016-11-11T00:43:42.420Z,0
2016-11-11T00:44:51.689Z,0
2016-11-11T00:46:00.822Z,0
2016-11-11T00:47:09.752Z,0
2016-11-11T00:48:19.002Z,0
2016-11-11T00:49:27.614Z,0
2016-11-11T00:50:36.225Z,0
2016-11-11T00:51:45.203Z,0
2016-11-11T00:52:53.818Z,0
2016-11-11T00:54:02.423Z,0
2016-11-11T00:55:11.663Z,0
2016-11-11T00:56:20.285Z,0
2016-11-11T00:57:29.369Z,0
2016-11-11T00:58:37.973Z,0
2016-11-11T00:59:46.593Z,0
2016-11-11T01:00:55.859Z,0
2016-11-11T01:02:04.461Z,0
2016-11-11T01:03:13.219Z,0
2016-11-11T01:04:22.147Z,0
2016-11-11T01:05:31.721Z,0
2016-11-11T01:06:40.651Z,0
2016-11-11T01:07:49.597Z,0
2016-11-11T01:08:58.554Z,0
2016-11-11T01:10:07.171Z,0
2016-11-11T01:11:16.744Z,0
2016-11-11T01:12:25.360Z,0
2016-11-11T01:13:34.619Z,0
2016-11-11T01:14:43.697Z,0
2016-11-11T01:15:52.304Z,0
2016-11-11T01:17:01.248Z,0
2016-11-11T01:18:10.198Z,0
2016-11-11T01:19:19.120Z,0
2016-11-11T01:20:28.107Z,0
2016-11-11T01:21:37.040Z,0
2016-11-11T01:22:45.981Z,0
2016-11-11T01:23:54.916Z,0
2016-11-11T01:25:03.851Z,0
2016-11-11T01:26:12.623Z,0
2016-11-11T01:27:21.549Z,0
2016-11-11T01:28:30.491Z,0
2016-11-11T01:29:39.096Z,0
2016-11-11T01:30:48.342Z,0
2016-11-11T01:31:57.316Z,0
2016-11-11T01:33:06.261Z,0
2016-11-11T01:34:15.190Z,0
2016-11-11T01:35:24.433Z,0
2016-11-11T01:36:33.381Z,0
2016-11-11T01:37:42.354Z,0
2016-11-11T01:38:51.612Z,0
2016-11-11T01:40:00.214Z,0
2016-11-11T01:41:09.158Z,0
2016-11-11T01:42:18.422Z,0
2016-11-11T01:43:27.217Z,0
2016-11-11T01:44:36.804Z,0
2016-11-11T01:45:46.064Z,0
2016-11-11T01:46:55.000Z,0
2016-11-11T01:48:03.942Z,0
2016-11-11T01:49:12.606Z,0
2016-11-11T01:50:21.222Z,0
2016-11-11T01:51:30.149Z,0
2016-11-11T01:52:38.761Z,0
2016-11-11T01:53:47.680Z,0
2016-11-11T01:54:56.982Z,0
2016-11-11T01:56:05.610Z,0
2016-11-11T01:57:14.543Z,0
2016-11-11T01:58:23.149Z,0
2016-11-11T01:59:32.734Z,0
2016-11-11T02:00:42.095Z,0
2016-11-11T02:01:51.016Z,0
2016-11-11T02:02:59.961Z,0
2016-11-11T02:04:15.162Z,0
2016-11-11T02:05:24.103Z,0
2016-11-11T02:06:33.237Z,0
2016-11-11T02:07:42.491Z,0
2016-11-11T02:08:51.443Z,0
2016-11-11T02:10:00.375Z,0
2016-11-11T02:11:09.628Z,0
2016-11-11T02:12:19.127Z,0
2016-11-11T02:13:28.070Z,0
2016-11-11T02:14:37.008Z,0
2016-11-11T02:15:45.944Z,0
2016-11-11T02:16:54.550Z,0
2016-11-11T02:18:03.876Z,0
2016-11-11T02:19:12.487Z,0
2016-11-11T02:20:21.100Z,0
2016-11-11T02:21:30.359Z,0
2016-11-11T02:22:39.290Z,0
2016-11-11T02:23:48.103Z,0
2016-11-11T02:24:57.070Z,0
2016-11-11T02:26:11.961Z,0
2016-11-11T02:27:20.884Z,0
2016-11-11T02:28:29.824Z,0
2016-11-11T02:29:38.540Z,0
2016-11-11T02:30:47.475Z,0
2016-11-11T02:31:56.085Z,0
2016-11-11T02:33:06.002Z,0
2016-11-11T02:34:15.248Z,0
2016-11-11T02:35:24.555Z,0
2016-11-11T02:36:33.800Z,0
2016-11-11T02:37:42.739Z,0
2016-11-11T02:38:51.992Z,0
2016-11-11T02:40:00.614Z,0
2016-11-11T02:41:10.027Z,0
2016-11-11T02:42:18.950Z,0
2016-11-11T02:43:28.192Z,0
2016-11-11T02:44:36.826Z,0
2016-11-11T02:45:45.763Z,0
2016-11-11T02:46:55.063Z,0
2016-11-11T02:48:04.003Z,0
2016-11-11T02:49:12.942Z,0
2016-11-11T02:50:21.876Z,0
2016-11-11T02:51:30.481Z,0
2016-11-11T02:52:39.343Z,0
2016-11-11T02:53:48.594Z,0
2016-11-11T02:54:57.856Z,0
2016-11-11T02:56:07.106Z,0
2016-11-11T02:57:16.042Z,0
2016-11-11T02:58:25.178Z,0
2016-11-11T02:59:34.117Z,0
2016-11-11T03:00:43.054Z,0
2016-11-11T03:01:52.000Z,0
2016-11-11T03:03:00.942Z,0
2016-11-11T03:04:09.608Z,0
2016-11-11T03:05:18.540Z,0
2016-11-11T03:06:27.455Z,0
2016-11-11T03:07:36.386Z,0
2016-11-11T03:08:45.334Z,0
2016-11-11T03:09:54.630Z,0
2016-11-11T03:11:03.577Z,0
2016-11-11T03:12:12.512Z,0
2016-11-11T03:13:21.460Z,0
2016-11-11T03:14:31.045Z,0
2016-11-11T03:15:40.033Z,0
2016-11-11T03:16:48.645Z,0
2016-11-11T03:17:57.258Z,0
2016-11-11T03:19:06.215Z,0
2016-11-11T03:20:15.498Z,0
2016-11-11T03:21:24.901Z,0
2016-11-11T03:22:33.835Z,0
2016-11-11T03:23:42.767Z,0
2016-11-11T03:24:51.716Z,0
2016-11-11T03:26:00.654Z,0
2016-11-11T03:27:10.155Z,0
2016-11-11T03:28:19.430Z,0
2016-11-11T03:29:28.030Z,0
2016-11-11T03:30:37.618Z,0
2016-11-11T03:31:46.579Z,0
2016-11-11T03:32:55.261Z,0
2016-11-11T03:34:04.197Z,0
2016-11-11T03:35:12.805Z,0
2016-11-11T03:36:22.079Z,0
2016-11-11T03:37:31.325Z,0
2016-11-11T03:38:40.188Z,0
2016-11-11T03:39:48.794Z,0
2016-11-11T03:40:58.059Z,0
2016-11-11T03:42:07.317Z,0
2016-11-11T03:43:15.932Z,0
2016-11-11T03:44:24.792Z,0
2016-11-11T03:45:34.048Z,0
2016-11-11T03:46:42.656Z,0
2016-11-11T03:47:51.272Z,0
2016-11-11T03:49:00.538Z,0
2016-11-11T03:50:09.677Z,0
2016-11-11T03:51:18.608Z,0
2016-11-11T03:52:27.209Z,0
2016-11-11T03:53:35.807Z,0
2016-11-11T03:54:44.414Z,0
2016-11-11T03:55:53.726Z,0
2016-11-11T03:57:02.688Z,0
2016-11-11T03:58:11.291Z,0
2016-11-11T03:59:20.217Z,0
2016-11-11T04:00:29.461Z,0
2016-11-11T04:01:38.443Z,0
2016-11-11T04:02:47.390Z,0
2016-11-11T04:03:56.653Z,0
2016-11-11T04:05:05.595Z,0
2016-11-11T04:06:14.542Z,0
2016-11-11T04:07:23.512Z,0
2016-11-11T04:08:32.802Z,0
2016-11-11T04:09:42.045Z,0
2016-11-11T04:10:50.974Z,0
2016-11-11T04:11:59.579Z,0
2016-11-11T04:13:08.616Z,0
2016-11-11T04:14:17.548Z,0
2016-11-11T04:15:26.158Z,0
2016-11-11T04:16:34.770Z,0
2016-11-11T04:17:44.018Z,0
2016-11-11T04:18:52.739Z,0
2016-11-11T04:20:01.687Z,0
2016-11-11T04:21:10.937Z,0
2016-11-11T04:22:20.205Z,0
2016-11-11T04:23:28.809Z,0
2016-11-11T04:24:37.468Z,0
2016-11-11T04:25:46.397Z,0
2016-11-11T04:26:55.336Z,0
2016-11-11T04:28:03.972Z,0
2016-11-11T04:29:13.222Z,0
2016-11-11T04:30:22.201Z,0
2016-11-11T04:31:30.810Z,0
2016-11-11T04:32:39.736Z,0
2016-11-11T04:33:48.999Z,0
2016-11-11T04:34:57.607Z,0
2016-11-11T04:36:06.275Z,0
2016-11-11T04:37:15.217Z,0
2016-11-11T04:38:24.805Z,0
2016-11-11T04:39:33.740Z,0
2016-11-11T04:40:42.667Z,0
2016-11-11T04:41:51.398Z,0
2016-11-11T04:43:00.657Z,0
2016-11-11T04:44:09.601Z,0
2016-11-11T04:45:19.179Z,0
2016-11-11T04:46:27.781Z,0
2016-11-11T04:47:36.854Z,0
2016-11-11T04:48:45.793Z,0
2016-11-11T04:49:55.061Z,0
2016-11-11T04:51:03.998Z,0
2016-11-11T04:52:12.920Z,0
2016-11-11T04:53:22.238Z,0
2016-11-11T04:54:31.168Z,0
2016-11-11T04:55:40.094Z,0
2016-11-11T04:56:49.032Z,0
2016-11-11T04:57:57.971Z,0
2016-11-11T04:59:07.325Z,0
2016-11-11T05:00:16.257Z,0
2016-11-11T05:01:25.193Z,0
2016-11-11T05:02:34.131Z,0
2016-11-11T05:03:42.746Z,0
2016-11-11T05:04:51.738Z,0
2016-11-11T05:06:00.359Z,0
2016-11-11T05:07:09.942Z,0
2016-11-11T05:08:19.207Z,0
2016-11-11T05:09:27.812Z,0
2016-11-11T05:10:36.855Z,0
2016-11-11T05:11:45.790Z,0
2016-11-11T05:12:54.408Z,0
2016-11-11T05:14:03.345Z,0
2016-11-11T05:15:12.611Z,0
2016-11-11T05:16:21.297Z,0
2016-11-11T05:17:30.232Z,0
2016-11-11T05:18:38.848Z,0
2016-11-11T05:19:47.772Z,0
2016-11-11T05:20:56.699Z,0
2016-11-11T05:22:05.995Z,0
2016-11-11T05:23:14.925Z,0
2016-11-11T05:24:24.187Z,0
2016-11-11T05:25:32.804Z,0
2016-11-11T05:26:41.729Z,0
2016-11-11T05:27:50.853Z,0
2016-11-11T05:28:59.473Z,0
2016-11-11T05:30:08.409Z,0
2016-11-11T05:31:18.026Z,0
2016-11-11T05:32:26.636Z,0
2016-11-11T05:33:35.669Z,0
2016-11-11T05:34:45.245Z,0
2016-11-11T05:35:53.854Z,0
2016-11-11T05:37:03.143Z,0
2016-11-11T05:38:12.072Z,0
2016-11-11T05:39:21.423Z,0
2016-11-11T05:40:30.041Z,0
2016-11-11T05:41:38.652Z,0
2016-11-11T05:42:47.893Z,0
2016-11-11T05:43:56.504Z,0
2016-11-11T05:45:05.483Z,0
2016-11-11T05:46:14.099Z,0
2016-11-11T05:47:22.711Z,0
2016-11-11T05:48:31.638Z,0
2016-11-11T05:49:40.243Z,0
2016-11-11T05:50:48.958Z,0
2016-11-11T05:51:57.570Z,0
2016-11-11T05:53:06.170Z,0
2016-11-11T05:54:14.782Z,0
2016-11-11T05:55:23.718Z,0
2016-11-11T05:56:33.024Z,0
2016-11-11T05:57:41.645Z,0
2016-11-11T05:58:50.581Z,0
2016-11-11T05:59:59.524Z,0
2016-11-11T06:01:08.456Z,0
2016-11-11T06:02:18.089Z,0
2016-11-11T06:03:27.334Z,0
2016-11-11T06:04:35.943Z,0
2016-11-11T06:05:44.881Z,0
2016-11-11T06:06:53.816Z,0
2016-11-11T06:08:02.517Z,0
2016-11-11T06:09:11.771Z,0
2016-11-11T06:10:20.700Z,0
2016-11-11T06:11:30.015Z,0
2016-11-11T06:12:38.629Z,0
2016-11-11T06:13:47.653Z,0
2016-11-11T06:14:56.596Z,0
2016-11-11T06:16:05.532Z,0
2016-11-11T06:17:14.467Z,0
2016-11-11T06:18:23.409Z,0
2016-11-11T06:19:33.035Z,0
2016-11-11T06:20:41.969Z,0
2016-11-11T06:21:51.222Z,0
2016-11-11T06:23:00.154Z,0
2016-11-11T06:24:09.081Z,0
2016-11-11T06:25:18.377Z,0
2016-11-11T06:26:27.440Z,0
2016-11-11T06:27:36.045Z,0
2016-11-11T06:28:45.234Z,0
2016-11-11T06:29:54.965Z,0
2016-11-11T06:31:04.272Z,0
2016-11-11T06:32:13.392Z,5
2016-11-11T06:33:22.013Z,5
2016-11-11T06:34:31.410Z,5
2016-11-11T06:35:40.334Z,5
2016-11-11T06:36:49.401Z,5
2016-11-11T06:37:58.781Z,5
2016-11-11T06:39:07.388Z,10
2016-11-11T06:40:16.309Z,10
2016-11-11T06:41:24.916Z,10
2016-11-11T06:42:34.264Z,15
2016-11-11T06:43:43.198Z,15
2016-11-11T06:44:52.138Z,15
2016-11-11T06:46:01.094Z,20
2016-11-11T06:47:10.038Z,20
2016-11-11T06:48:18.768Z,20
2016-11-11T06:49:28.025Z,25
2016-11-11T06:50:36.626Z,25
2016-11-11T06:51:45.892Z,30
2016-11-11T06:52:54.495Z,30
2016-11-11T06:54:03.405Z,35
2016-11-11T06:55:12.345Z,35
2016-11-11T06:56:20.953Z,40
2016-11-11T06:57:29.904Z,40
2016-11-11T06:58:38.851Z,45
2016-11-11T06:59:48.141Z,45
2016-11-11T07:00:56.742Z,50
2016-11-11T07:02:05.340Z,50
2016-11-11T07:03:14.285Z,55
2016-11-11T07:04:23.224Z,60
2016-11-11T07:05:31.920Z,60
2016-11-11T07:06:40.911Z,65
2016-11-11T07:07:49.543Z,70
2016-11-11T07:08:59.184Z,70
2016-11-11T07:10:11.511Z,75
2016-11-11T07:11:20.809Z,80
2016-11-11T07:12:29.743Z,80
2016-11-11T07:13:38.675Z,85
2016-11-11T07:14:47.949Z,90
2016-11-11T07:15:56.875Z,90
2016-11-11T07:17:05.887Z,90
2016-11-11T07:18:14.823Z,95
2016-11-11T07:19:23.438Z,100
2016-11-11T07:20:32.368Z,105
2016-11-11T07:21:40.979Z,110
2016-11-11T07:22:49.997Z,115
2016-11-11T07:23:59.806Z,130
2016-11-11T07:25:08.495Z,120
2016-11-11T07:26:17.197Z,120
2016-11-11T07:27:26.136Z,130
2016-11-11T07:28:35.464Z,140
2016-11-11T07:29:45.276Z,140
2016-11-11T07:30:55.603Z,150
2016-11-11T07:32:04.642Z,165
2016-11-11T07:33:13.577Z,150
2016-11-11T07:34:22.559Z,160
2016-11-11T07:35:31.504Z,160
2016-11-11T07:36:40.108Z,145
2016-11-11T07:37:49.047Z,150
2016-11-11T07:38:57.677Z,155
2016-11-11T07:40:06.638Z,160
2016-11-11T07:41:15.241Z,165
2016-11-11T07:42:24.175Z,165
2016-11-11T07:43:33.438Z,175
2016-11-11T07:44:42.384Z,180
2016-11-11T07:45:51.457Z,170
2016-11-11T07:47:00.067Z,165
2016-11-11T07:48:08.670Z,160
2016-11-11T07:49:17.941Z,150
2016-11-11T07:50:26.559Z,155
2016-11-11T07:51:36.157Z,160
2016-11-11T07:52:44.773Z,160
2016-11-11T07:53:53.700Z,165
2016-11-11T07:55:02.306Z,165
2016-11-11T07:56:11.254Z,165
2016-11-11T07:57:20.920Z,170
2016-11-11T07:58:29.858Z,175
2016-11-11T07:59:39.125Z,180
2016-11-11T08:00:48.093Z,185
2016-11-11T08:01:57.034Z,190
2016-11-11T08:03:05.971Z,200
2016-11-11T08:04:15.271Z,205
2016-11-11T08:05:24.214Z,200
2016-11-11T08:06:33.159Z,200
2016-11-11T08:07:42.099Z,200
2016-11-11T08:08:52.326Z,205
2016-11-11T08:10:01.600Z,200
2016-11-11T08:11:10.530Z,195
2016-11-11T08:12:19.779Z,200
2016-11-11T08:13:28.397Z,215
2016-11-11T08:14:37.769Z,220
2016-11-11T08:15:46.701Z,225
2016-11-11T08:16:55.629Z,230
2016-11-11T08:18:04.245Z,225
2016-11-11T08:19:12.854Z,225
2016-11-11T08:20:22.818Z,215
2016-11-11T08:21:31.857Z,220
2016-11-11T08:22:40.802Z,245
2016-11-11T08:23:49.427Z,270
2016-11-11T08:24:58.039Z,275
2016-11-11T08:26:07.006Z,290
2016-11-11T08:27:15.940Z,315
2016-11-11T08:28:24.570Z,315
2016-11-11T08:29:33.516Z,305
2016-11-11T08:30:42.462Z,300
2016-11-11T08:31:51.495Z,305
2016-11-11T08:33:00.128Z,295
2016-11-11T08:34:09.417Z,260
2016-11-11T08:35:18.076Z,250
2016-11-11T08:36:27.071Z,245
2016-11-11T08:37:36.111Z,240
2016-11-11T08:38:44.790Z,240
2016-11-11T08:39:53.759Z,240
2016-11-11T08:41:02.729Z,245
2016-11-11T08:42:11.698Z,250
2016-11-11T08:43:21.012Z,250
2016-11-11T08:44:29.626Z,260
2016-11-11T08:45:38.619Z,270
2016-11-11T08:46:47.933Z,255
2016-11-11T08:47:56.904Z,250
2016-11-11T08:49:05.581Z,250
2016-11-11T08:50:14.199Z,250
2016-11-11T08:51:22.818Z,255
2016-11-11T08:52:31.440Z,255
2016-11-11T08:53:40.698Z,255
2016-11-11T08:54:50.043Z,255
2016-11-11T08:55:59.047Z,260
2016-11-11T08:57:07.989Z,260
2016-11-11T08:58:16.652Z,260
2016-11-11T08:59:26.003Z,265
2016-11-11T09:00:34.727Z,265
2016-11-11T09:01:43.687Z,265
2016-11-11T09:02:52.629Z,270
2016-11-11T09:04:01.247Z,270
2016-11-11T09:05:10.521Z,270
2016-11-11T09:06:19.818Z,275
2016-11-11T09:07:28.747Z,270
2016-11-11T09:08:38.011Z,270
2016-11-11T09:09:46.956Z,275
2016-11-11T09:10:56.538Z,275
2016-11-11T09:12:05.502Z,280
2016-11-11T09:13:14.477Z,275
2016-11-11T09:14:23.111Z,275
2016-11-11T09:15:32.404Z,275
2016-11-11T09:16:41.035Z,280
2016-11-11T09:17:49.760Z,275
2016-11-11T09:18:59.032Z,280
2016-11-11T09:20:08.307Z,280
2016-11-11T09:21:17.558Z,280
2016-11-11T09:22:26.174Z,280
2016-11-11T09:23:35.221Z,275
2016-11-11T09:24:44.165Z,285
2016-11-11T09:25:53.102Z,280
2016-11-11T09:27:02.050Z,275
2016-11-11T09:28:10.684Z,275
2016-11-11T09:29:20.387Z,280
2016-11-11T09:30:28.993Z,280
2016-11-11T09:31:37.640Z,280
2016-11-11T09:32:46.567Z,280
2016-11-11T09:33:55.824Z,280
2016-11-11T09:35:04.805Z,280
2016-11-11T09:36:13.421Z,280
2016-11-11T09:37:22.044Z,280
2016-11-11T09:38:31.327Z,285
2016-11-11T09:39:40.602Z,285
2016-11-11T09:40:49.954Z,285
2016-11-11T09:41:58.897Z,285
2016-11-11T09:43:07.516Z,285
2016-11-11T09:44:16.800Z,285
2016-11-11T09:45:25.458Z,285
2016-11-11T09:46:35.398Z,290
2016-11-11T09:47:44.662Z,290
2016-11-11T09:48:53.588Z,290
2016-11-11T09:50:02.204Z,290
2016-11-11T09:51:11.148Z,290
2016-11-11T09:52:20.143Z,290
2016-11-11T09:53:29.097Z,290
2016-11-11T09:54:38.620Z,290
2016-11-11T09:55:47.891Z,290
2016-11-11T09:56:56.517Z,290
2016-11-11T09:58:05.445Z,290
2016-11-11T09:59:14.709Z,290
2016-11-11T10:00:23.325Z,295
2016-11-11T10:01:32.573Z,295
2016-11-11T10:02:41.516Z,295
2016-11-11T10:03:50.174Z,295
2016-11-11T10:04:59.106Z,295
2016-11-11T10:06:08.039Z,295
2016-11-11T10:07:16.985Z,295
2016-11-11T10:08:26.192Z,295
2016-11-11T10:09:35.175Z,300
2016-11-11T10:10:43.797Z,300
2016-11-11T10:11:53.071Z,300
2016-11-11T10:13:02.029Z,300
2016-11-11T10:14:10.969Z,300
2016-11-11T10:15:19.971Z,300
2016-11-11T10:16:28.571Z,300
2016-11-11T10:17:37.509Z,300
2016-11-11T10:18:46.439Z,300
2016-11-11T10:19:56.006Z,300
2016-11-11T10:21:05.673Z,300
2016-11-11T10:22:14.613Z,300
2016-11-11T10:23:23.546Z,300
2016-11-11T10:24:32.162Z,300
2016-11-11T10:25:41.130Z,300
2016-11-11T10:26:50.849Z,300
2016-11-11T10:27:59.850Z,300
2016-11-11T10:29:08.802Z,300
2016-11-11T10:30:17.731Z,300
2016-11-11T10:31:26.350Z,300
2016-11-11T10:32:35.674Z,300
2016-11-11T10:33:44.313Z,300
2016-11-11T10:34:53.323Z,300
2016-11-11T10:36:02.591Z,300
2016-11-11T10:37:11.523Z,300
2016-11-11T10:38:20.269Z,300
2016-11-11T10:39:29.285Z,300
2016-11-11T10:40:38.888Z,305
2016-11-11T10:41:47.844Z,305
2016-11-11T10:42:56.782Z,305
2016-11-11T10:44:06.081Z,305
2016-11-11T10:45:14.779Z,305
2016-11-11T10:46:24.056Z,305
2016-11-11T10:47:33.326Z,305
2016-11-11T10:48:41.939Z,305
2016-11-11T10:49:50.708Z,305
2016-11-11T10:50:59.360Z,305
2016-11-11T10:52:08.639Z,305
2016-11-11T10:53:17.587Z,305
2016-11-11T10:54:26.844Z,305
2016-11-11T10:55:36.125Z,305
2016-11-11T10:56:45.071Z,305
2016-11-11T10:57:53.691Z,305
2016-11-11T10:59:02.639Z,305
2016-11-11T11:00:11.584Z,305
2016-11-11T11:01:21.381Z,305
2016-11-11T11:02:30.890Z,305
2016-11-11T11:03:40.803Z,305
2016-11-11T11:04:50.393Z,305
2016-11-11T11:06:00.010Z,305
2016-11-11T11:07:09.633Z,305
2016-11-11T11:08:19.561Z,305
2016-11-11T11:09:29.101Z,305
2016-11-11T11:10:38.046Z,305
2016-11-11T11:11:47.002Z,310
2016-11-11T11:12:55.996Z,305
2016-11-11T11:14:04.606Z,310
2016-11-11T11:15:13.542Z,305
2016-11-11T11:16:22.158Z,305
2016-11-11T11:17:31.700Z,305
2016-11-11T11:18:41.617Z,305
2016-11-11T11:19:51.721Z,305
2016-11-11T11:21:00.330Z,305
2016-11-11T11:22:09.344Z,305
2016-11-11T11:23:18.616Z,305
2016-11-11T11:24:28.355Z,310
2016-11-11T11:25:37.281Z,305
2016-11-11T11:26:46.239Z,305
2016-11-11T11:27:55.499Z,305
2016-11-11T11:29:04.439Z,310
2016-11-11T11:30:14.310Z,310
2016-11-11T11:31:23.595Z,310
2016-11-11T11:32:32.218Z,305
2016-11-11T11:33:41.478Z,300
2016-11-11T11:34:51.072Z,305
2016-11-11T11:36:00.359Z,305
2016-11-11T11:37:08.985Z,305
2016-11-11T11:38:18.256Z,305
2016-11-11T11:39:27.200Z,305
2016-11-11T11:40:35.836Z,305
2016-11-11T11:41:44.871Z,300
2016-11-11T11:42:53.806Z,305
2016-11-11T11:44:03.060Z,305
2016-11-11T11:45:12.024Z,320
2016-11-11T11:46:20.650Z,315
2016-11-11T11:47:30.305Z,305
2016-11-11T11:48:38.942Z,305
2016-11-11T11:49:48.219Z,305
2016-11-11T11:50:57.486Z,290
2016-11-11T11:52:06.088Z,315
2016-11-11T11:53:15.059Z,290
2016-11-11T11:54:24.361Z,315
2016-11-11T11:55:33.010Z,310
2016-11-11T11:56:41.949Z,305
2016-11-11T11:57:50.887Z,300
2016-11-11T11:59:00.579Z,305
2016-11-11T12:00:09.522Z,305
2016-11-11T12:01:18.167Z,310
2016-11-11T12:02:26.779Z,310
2016-11-11T12:03:35.731Z,305
2016-11-11T12:04:48.331Z,300
2016-11-11T12:05:56.946Z,300
2016-11-11T12:07:06.216Z,305
2016-11-11T12:08:15.152Z,310
2016-11-11T12:09:24.412Z,305
2016-11-11T12:10:34.071Z,295
2016-11-11T12:11:42.686Z,300
2016-11-11T12:12:51.611Z,300
2016-11-11T12:14:00.555Z,295
2016-11-11T12:15:09.494Z,300
2016-11-11T12:16:18.739Z,300
2016-11-11T12:17:27.678Z,310
2016-11-11T12:18:36.950Z,310
2016-11-11T12:19:46.205Z,305
2016-11-11T12:20:55.167Z,305
2016-11-11T12:22:04.414Z,300
2016-11-11T12:23:13.029Z,315
2016-11-11T12:24:21.969Z,325
2016-11-11T12:25:30.920Z,320
2016-11-11T12:26:39.558Z,335
2016-11-11T12:27:48.899Z,390
2016-11-11T12:28:57.828Z,395
2016-11-11T12:30:06.773Z,330
2016-11-11T12:31:16.075Z,300
2016-11-11T12:32:25.349Z,300
2016-11-11T12:33:34.584Z,305
2016-11-11T12:34:43.533Z,300
2016-11-11T12:35:52.138Z,295
2016-11-11T12:37:00.747Z,285
2016-11-11T12:38:09.716Z,290
2016-11-11T12:39:18.773Z,275
2016-11-11T12:40:28.036Z,275
2016-11-11T12:41:36.982Z,300
2016-11-11T12:42:46.576Z,285
2016-11-11T12:43:55.186Z,295
2016-11-11T12:45:04.497Z,310
2016-11-11T12:46:13.767Z,275
2016-11-11T12:47:22.376Z,265
2016-11-11T12:48:30.973Z,275
2016-11-11T12:49:39.923Z,270
2016-11-11T12:50:48.897Z,265
2016-11-11T12:51:58.482Z,285
2016-11-11T12:53:07.104Z,320
2016-11-11T12:54:16.036Z,335
2016-11-11T12:55:25.300Z,320
2016-11-11T12:56:34.334Z,320
2016-11-11T12:57:43.616Z,345
2016-11-11T12:58:52.226Z,400
2016-11-11T13:00:00.851Z,375
2016-11-11T13:01:09.794Z,305
2016-11-11T13:02:19.074Z,275
2016-11-11T13:03:27.677Z,280
2016-11-11T13:04:36.624Z,275
2016-11-11T13:05:45.560Z,275
2016-11-11T13:06:54.819Z,270
2016-11-11T13:08:03.811Z,290
2016-11-11T13:09:12.415Z,310
2016-11-11T13:10:21.673Z,340
2016-11-11T13:11:30.620Z,375
2016-11-11T13:12:39.878Z,340
2016-11-11T13:13:48.861Z,315
2016-11-11T13:14:57.482Z,330
2016-11-11T13:16:06.434Z,315
2016-11-11T13:17:15.727Z,315
2016-11-11T13:18:24.348Z,290
2016-11-11T13:19:33.741Z,305
2016-11-11T13:20:42.366Z,310
2016-11-11T13:21:51.332Z,305
2016-11-11T13:22:59.965Z,290
2016-11-11T13:24:08.905Z,295
2016-11-11T13:25:17.877Z,290
2016-11-11T13:26:26.829Z,285
2016-11-11T13:27:35.763Z,290
2016-11-11T13:28:44.704Z,320
2016-11-11T13:29:53.966Z,300
2016-11-11T13:31:02.667Z,310
2016-11-11T13:32:11.597Z,335
2016-11-11T13:33:20.862Z,375
2016-11-11T13:34:29.473Z,370
2016-11-11T13:35:38.081Z,315
2016-11-11T13:36:47.125Z,325
2016-11-11T13:37:56.063Z,320
2016-11-11T13:39:05.033Z,350
2016-11-11T13:40:13.641Z,315
2016-11-11T13:41:22.584Z,275
2016-11-11T13:42:31.887Z,265
2016-11-11T13:43:41.157Z,265
2016-11-11T13:44:51.069Z,280
2016-11-11T13:45:59.681Z,270
2016-11-11T13:47:08.951Z,265
2016-11-11T13:48:18.622Z,265
2016-11-11T13:49:27.567Z,255
2016-11-11T13:50:36.499Z,265
2016-11-11T13:51:45.471Z,275
2016-11-11T13:52:54.406Z,280
2016-11-11T13:54:03.682Z,280
2016-11-11T13:55:13.323Z,260
2016-11-11T13:56:22.256Z,250
2016-11-11T13:57:30.870Z,250
2016-11-11T13:58:40.123Z,275
2016-11-11T13:59:49.434Z,325
2016-11-11T14:00:58.050Z,375
2016-11-11T14:02:06.984Z,390
2016-11-11T14:03:16.254Z,345
2016-11-11T14:04:25.195Z,310
2016-11-11T14:05:34.664Z,240
2016-11-11T14:06:44.468Z,205
2016-11-11T14:07:53.483Z,195
2016-11-11T14:09:03.239Z,200
2016-11-11T14:10:12.178Z,200
2016-11-11T14:11:21.515Z,195
2016-11-11T14:12:30.133Z,195
2016-11-11T14:13:38.744Z,190
2016-11-11T14:14:48.025Z,195
2016-11-11T14:15:57.300Z,205
2016-11-11T14:17:06.652Z,210
2016-11-11T14:18:15.268Z,220
2016-11-11T14:19:24.210Z,230
2016-11-11T14:20:33.850Z,245
2016-11-11T14:21:43.110Z,260
2016-11-11T14:22:52.718Z,255
2016-11-11T14:24:01.990Z,225
2016-11-11T14:25:10.610Z,210
2016-11-11T14:26:19.212Z,190
2016-11-11T14:27:27.828Z,180
2016-11-11T14:28:36.500Z,180
2016-11-11T14:29:45.445Z,190
2016-11-11T14:30:54.062Z,205
2016-11-11T14:32:03.002Z,200
2016-11-11T14:33:12.268Z,185
2016-11-11T14:34:21.920Z,175
2016-11-11T14:35:30.856Z,165
2016-11-11T14:36:39.799Z,155
2016-11-11T14:37:49.058Z,155
2016-11-11T14:38:57.673Z,155
2016-11-11T14:40:07.002Z,155
2016-11-11T14:41:15.604Z,155
2016-11-11T14:42:24.538Z,155
2016-11-11T14:43:33.481Z,145
2016-11-11T14:44:42.417Z,140
2016-11-11T14:45:51.656Z,135
2016-11-11T14:47:00.594Z,130
2016-11-11T14:48:09.837Z,130
2016-11-11T14:49:18.783Z,125
2016-11-11T14:50:27.715Z,125
2016-11-11T14:51:36.383Z,125
2016-11-11T14:52:45.318Z,125
2016-11-11T14:53:54.258Z,125
2016-11-11T14:55:03.193Z,125
2016-11-11T14:56:11.805Z,120
2016-11-11T14:57:21.158Z,115
2016-11-11T14:58:30.426Z,110
2016-11-11T14:59:39.354Z,105
2016-11-11T15:00:48.604Z,105
2016-11-11T15:01:57.551Z,100
2016-11-11T15:03:06.848Z,100
2016-11-11T15:04:15.483Z,95
2016-11-11T15:05:24.425Z,95
2016-11-11T15:06:33.067Z,90
2016-11-11T15:07:42.003Z,90
2016-11-11T15:08:51.242Z,85
2016-11-11T15:10:00.530Z,85
2016-11-11T15:11:09.466Z,80
2016-11-11T15:12:18.419Z,75
2016-11-11T15:13:27.351Z,70
2016-11-11T15:14:35.998Z,70
2016-11-11T15:15:44.939Z,65
2016-11-11T15:16:54.192Z,65
2016-11-11T15:18:03.125Z,60
2016-11-11T15:19:12.070Z,55
2016-11-11T15:20:21.430Z,55
2016-11-11T15:21:30.049Z,50
2016-11-11T15:22:39.014Z,50
2016-11-11T15:23:47.625Z,45
2016-11-11T15:24:56.568Z,45
2016-11-11T15:26:05.226Z,40
2016-11-11T15:27:14.201Z,40
2016-11-11T15:28:23.460Z,35
2016-11-11T15:29:32.734Z,35
2016-11-11T15:30:41.377Z,30
2016-11-11T15:31:50.396Z,30
2016-11-11T15:32:59.010Z,25
2016-11-11T15:34:08.280Z,25
2016-11-11T15:35:17.217Z,20
2016-11-11T15:36:25.829Z,20
2016-11-11T15:37:35.800Z,20
2016-11-11T15:38:44.412Z,15
2016-11-11T15:39:53.020Z,15
2016-11-11T15:41:01.622Z,10
2016-11-11T15:42:10.881Z,10
2016-11-11T15:43:19.847Z,10
2016-11-11T15:44:28.794Z,10
2016-11-11T15:45:37.398Z,5
2016-11-11T15:46:46.349Z,5
2016-11-11T15:47:55.293Z,5
2016-11-11T15:49:04.583Z,5
2016-11-11T15:50:13.207Z,5
2016-11-11T15:51:23.120Z,0
2016-11-11T15:52:31.726Z,0
2016-11-11T15:53:40.342Z,0
2016-11-11T15:54:49.987Z,0
2016-11-11T15:55:58.919Z,0
2016-11-11T15:57:07.575Z,0
2016-11-11T15:58:16.192Z,0
2016-11-11T15:59:25.472Z,0
2016-11-11T16:00:34.449Z,0
2016-11-11T16:01:43.052Z,0
2016-11-11T16:02:51.701Z,0
2016-11-11T16:04:01.274Z,0
2016-11-11T16:05:10.530Z,0
2016-11-11T16:06:19.230Z,0
2016-11-11T16:07:28.177Z,0
2016-11-11T16:08:37.137Z,0
2016-11-11T16:09:46.724Z,0
2016-11-11T16:10:56.023Z,0
2016-11-11T16:12:04.690Z,0
2016-11-11T16:13:13.623Z,0
2016-11-11T16:14:22.240Z,0
2016-11-11T16:15:30.861Z,0
2016-11-11T16:16:40.767Z,0
2016-11-11T16:17:49.726Z,0
2016-11-11T16:18:58.991Z,0
2016-11-11T16:20:07.917Z,0
2016-11-11T16:21:16.850Z,0
2016-11-11T16:22:25.790Z,0